createdAt,value
2018-09-13T00:00:39.706Z,11.43
2018-09-13T00:03:09.314Z,10.60
2018-09-13T00:05:38.931Z,8.97
2018-09-13T00:08:08.223Z,9.63
2018-09-13T00:10:37.829Z,9.43
2018-09-13T00:13:07.097Z,10.23
2018-09-13T00:15:36.747Z,8.87
2018-09-13T00:18:06.345Z,9.20
2018-09-13T00:20:35.606Z,8.60
2018-09-13T00:23:04.658Z,9.58
2018-09-13T00:25:34.246Z,8.23
2018-09-13T00:28:03.295Z,11.13
2018-09-13T00:30:32.251Z,9.03
2018-09-13T00:33:01.533Z,10.80
2018-09-13T00:35:31.199Z,9.05
2018-09-13T00:38:00.442Z,7.37
2018-09-13T00:40:29.761Z,9.63
2018-09-13T00:42:59.521Z,8.90
2018-09-13T00:45:29.275Z,7.07
2018-09-13T00:47:58.330Z,6.23
2018-09-13T00:50:27.585Z,8.07
2018-09-13T00:52:56.878Z,9.07
2018-09-13T00:55:26.465Z,8.50
2018-09-13T00:57:55.826Z,7.80
2018-09-13T01:00:25.094Z,5.70
2018-09-13T01:02:54.100Z,5.47
2018-09-13T01:05:23.973Z,5.57
2018-09-13T01:07:53.582Z,5.27
2018-09-13T01:10:22.598Z,6.47
2018-09-13T01:12:52.183Z,7.30
2018-09-13T01:15:21.790Z,5.80
2018-09-13T01:17:51.090Z,5.43
2018-09-13T01:20:20.171Z,7.30
2018-09-13T01:22:49.141Z,5.20
2018-09-13T01:25:18.082Z,5.30
2018-09-13T01:27:47.082Z,11.33
2018-09-13T01:30:16.671Z,7.73
2018-09-13T01:32:45.699Z,9.35
2018-09-13T01:35:15.582Z,7.67
2018-09-13T01:37:44.584Z,6.53
2018-09-13T01:40:13.586Z,5.93
2018-09-13T01:42:42.624Z,8.63
2018-09-13T01:45:11.563Z,6.50
2018-09-13T01:47:40.606Z,10.27
2018-09-13T01:50:10.010Z,6.20
2018-09-13T01:52:39.457Z,6.00
2018-09-13T01:55:08.917Z,9.93
2018-09-13T01:57:38.065Z,6.37
2018-09-13T02:00:07.663Z,5.87
2018-09-13T02:02:36.964Z,5.17
2018-09-13T02:05:06.572Z,6.92
2018-09-13T02:07:36.179Z,6.27
2018-09-13T02:10:05.786Z,7.47
2018-09-13T02:12:35.088Z,10.43
2018-09-13T02:15:04.694Z,11.10
2018-09-13T02:17:34.158Z,6.30
2018-09-13T02:20:03.822Z,8.43
2018-09-13T02:22:32.910Z,8.27
2018-09-13T02:25:01.974Z,6.37
2018-09-13T02:27:31.196Z,8.20
2018-09-13T02:30:00.203Z,7.93
2018-09-13T02:32:29.347Z,6.83
2018-09-13T02:34:58.746Z,7.20
2018-09-13T02:37:28.091Z,7.30
2018-09-13T02:39:57.114Z,6.70
2018-09-13T02:42:26.998Z,7.03
2018-09-13T02:44:56.016Z,7.27
2018-09-13T02:47:25.600Z,7.47
2018-09-13T02:49:54.901Z,7.10
2018-09-13T02:52:24.200Z,8.07
2018-09-13T02:54:53.310Z,6.63
2018-09-13T02:57:22.523Z,7.10
2018-09-13T02:59:51.549Z,6.17
2018-09-13T03:02:20.914Z,6.40
2018-09-13T03:04:50.144Z,10.07
2018-09-13T03:07:19.134Z,6.67
2018-09-13T03:09:48.086Z,6.87
2018-09-13T03:12:17.086Z,6.60
2018-09-13T03:14:46.246Z,7.43
2018-09-13T03:17:15.670Z,8.53
2018-09-13T03:19:44.969Z,7.37
2018-09-13T03:22:13.986Z,8.57
2018-09-13T03:24:42.974Z,8.40
2018-09-13T03:27:12.067Z,8.50
2018-09-13T03:29:41.374Z,9.40
2018-09-13T03:32:10.859Z,8.20
2018-09-13T03:34:39.865Z,8.87
2018-09-13T03:37:09.498Z,8.17
2018-09-13T03:39:38.513Z,8.80
2018-09-13T03:42:08.123Z,9.10
2018-09-13T03:44:37.666Z,10.75
2018-09-13T03:47:07.274Z,7.77
2018-09-13T03:49:36.310Z,8.83
2018-09-13T03:52:05.307Z,11.77
2018-09-13T03:54:34.590Z,10.40
2018-09-13T03:57:04.170Z,10.43
2018-09-13T03:59:33.303Z,14.47
2018-09-13T04:02:02.516Z,11.53
2018-09-13T04:04:32.114Z,16.53
2018-09-13T04:07:01.398Z,11.93
2018-09-13T04:09:30.675Z,10.40
2018-09-13T04:11:59.974Z,10.90
2018-09-13T04:14:29.888Z,10.97
2018-09-13T04:16:58.934Z,11.87
2018-09-13T04:19:33.402Z,11.37
2018-09-13T04:22:02.973Z,13.43
2018-09-13T04:24:32.036Z,11.43
2018-09-13T04:27:01.070Z,13.83
2018-09-13T04:29:30.605Z,14.00
2018-09-13T04:32:00.212Z,13.40
2018-09-13T04:34:29.535Z,14.60
2018-09-13T04:36:58.813Z,14.37
2018-09-13T04:39:28.192Z,13.00
2018-09-13T04:41:57.254Z,13.60
2018-09-13T04:44:26.661Z,13.77
2018-09-13T04:46:56.059Z,13.63
2018-09-13T04:49:25.939Z,12.83
2018-09-13T04:51:54.942Z,12.63
2018-09-13T04:54:24.698Z,14.33
2018-09-13T04:56:54.445Z,16.60
2018-09-13T04:59:23.914Z,15.03
2018-09-13T05:01:53.353Z,17.05
2018-09-13T05:04:22.501Z,16.47
2018-09-13T05:06:51.659Z,13.47
2018-09-13T05:09:21.114Z,16.47
2018-09-13T05:11:50.827Z,17.50
2018-09-13T05:14:19.866Z,16.33
2018-09-13T05:16:49.464Z,24.23
2018-09-13T05:19:19.071Z,32.20
2018-09-13T05:21:48.679Z,25.03
2018-09-13T05:24:17.880Z,23.97
2018-09-13T05:26:47.672Z,22.30
2018-09-13T05:29:17.261Z,16.83
2018-09-13T05:31:46.557Z,18.10
2018-09-13T05:34:16.063Z,16.87
2018-09-13T05:36:45.454Z,16.23
2018-09-13T05:39:15.002Z,32.47
2018-09-13T05:41:44.650Z,28.87
2018-09-13T05:44:14.841Z,25.00
2018-09-13T05:46:43.865Z,38.20
2018-09-13T05:49:13.442Z,16.03
2018-09-13T05:51:42.532Z,20.27
2018-09-13T05:54:11.734Z,15.03
2018-09-13T05:56:41.341Z,11.70
2018-09-13T05:59:10.422Z,14.80
2018-09-13T06:01:39.943Z,23.60
2018-09-13T06:04:08.994Z,20.93
2018-09-13T06:06:38.545Z,14.70
2018-09-13T06:09:08.186Z,13.57
2018-09-13T06:11:37.760Z,17.77
2018-09-13T06:14:07.135Z,12.37
2018-09-13T06:16:36.466Z,15.17
2018-09-13T06:19:05.731Z,14.18
2018-09-13T06:21:35.230Z,12.03
2018-09-13T06:24:04.286Z,14.87
2018-09-13T06:26:33.869Z,14.33
2018-09-13T06:29:03.170Z,31.17
2018-09-13T06:31:32.788Z,23.87
2018-09-13T06:34:02.387Z,20.47
2018-09-13T06:36:31.475Z,16.60
2018-09-13T06:39:00.425Z,14.03
2018-09-13T06:41:29.838Z,14.87
2018-09-13T06:43:58.990Z,10.87
2018-09-13T06:46:28.581Z,15.73
2018-09-13T06:48:57.946Z,14.70
2018-09-13T06:51:26.898Z,14.70
2018-09-13T06:53:55.886Z,16.60
2018-09-13T06:56:25.642Z,12.28
2018-09-13T06:58:54.801Z,16.30
2018-09-13T07:01:24.382Z,15.60
2018-09-13T07:03:53.990Z,15.00
2018-09-13T07:06:23.291Z,27.65
2018-09-13T07:08:52.722Z,30.90
2018-09-13T07:11:21.974Z,18.70
2018-09-13T07:13:51.302Z,16.17
2018-09-13T07:16:21.244Z,21.97
2018-09-13T07:18:50.431Z,19.12
2018-09-13T07:21:20.015Z,14.20
2018-09-13T07:23:49.347Z,22.90
2018-09-13T07:26:18.353Z,25.70
2018-09-13T07:28:47.318Z,29.55
2018-09-13T07:31:17.182Z,33.90
2018-09-13T07:33:46.597Z,33.28
2018-09-13T07:36:15.851Z,29.52
2018-09-13T07:38:45.173Z,31.00
2018-09-13T07:41:14.166Z,26.42
2018-09-13T07:43:50.698Z,24.75
2018-09-13T07:46:22.331Z,26.05
2018-09-13T07:48:56.632Z,21.77
2018-09-13T07:51:26.735Z,21.77
2018-09-13T07:53:57.061Z,24.45
2018-09-13T07:56:26.585Z,19.55
2018-09-13T07:58:55.835Z,19.00
2018-09-13T08:01:25.131Z,18.27
2018-09-13T08:03:54.522Z,14.23
2018-09-13T08:06:24.011Z,10.65
2018-09-13T08:08:53.360Z,11.53
2018-09-13T08:11:22.332Z,11.33
2018-09-13T08:13:51.912Z,7.87
2018-09-13T08:16:20.831Z,8.05
2018-09-13T08:18:50.644Z,8.33
2018-09-13T08:21:19.795Z,9.33
2018-09-13T08:23:51.167Z,9.55
2018-09-13T08:26:20.415Z,12.58
2018-09-13T08:28:49.559Z,8.83
2018-09-13T08:31:20.750Z,8.03
2018-09-13T08:33:50.002Z,12.05
2018-09-13T08:36:20.923Z,8.45
2018-09-13T08:38:50.953Z,10.73
2018-09-13T08:41:20.151Z,11.53
2018-09-13T08:43:49.971Z,8.90
2018-09-13T08:46:20.927Z,10.28
2018-09-13T08:48:51.710Z,12.33
2018-09-13T08:51:22.433Z,14.73
2018-09-13T08:53:52.187Z,11.75
2018-09-13T08:56:23.474Z,16.10
2018-09-13T08:58:52.947Z,12.13
2018-09-13T09:01:35.787Z,10.72
2018-09-13T09:04:08.711Z,9.40
2018-09-13T09:06:45.175Z,8.90
2018-09-13T09:09:14.699Z,10.18
2018-09-13T09:11:44.571Z,10.13
2018-09-13T09:14:14.667Z,11.80
2018-09-13T09:16:44.360Z,9.50
2018-09-13T09:19:21.705Z,11.40
2018-09-13T09:21:53.644Z,9.30
2018-09-13T09:24:25.595Z,9.53
2018-09-13T09:26:55.794Z,12.05
2018-09-13T09:29:26.716Z,6.78
2018-09-13T09:31:57.527Z,10.93
2018-09-13T09:34:27.126Z,7.10
2018-09-13T09:36:57.520Z,7.95
2018-09-13T09:39:27.491Z,10.65
2018-09-13T09:41:57.027Z,7.65
2018-09-13T09:44:28.839Z,10.70
2018-09-13T09:46:58.439Z,8.83
2018-09-13T09:49:27.992Z,8.28
2018-09-13T09:51:57.513Z,9.13
2018-09-13T09:54:27.918Z,8.80
2018-09-13T09:56:58.572Z,8.70
2018-09-13T09:59:29.459Z,9.17
2018-09-13T10:02:07.410Z,10.18
2018-09-13T10:04:39.118Z,8.80
2018-09-13T10:07:13.095Z,12.18
2018-09-13T10:09:43.423Z,9.15
2018-09-13T10:12:16.239Z,12.45
2018-09-13T10:14:51.820Z,8.45
2018-09-13T10:17:26.726Z,9.00
2018-09-13T10:20:02.869Z,9.35
2018-09-13T10:22:37.749Z,8.90
2018-09-13T10:25:12.648Z,8.58
2018-09-13T10:27:47.909Z,9.55
2018-09-13T10:30:22.785Z,10.10
2018-09-13T10:38:40.218Z,9.85
2018-09-13T10:41:15.334Z,8.25
2018-09-13T10:43:49.622Z,10.48
2018-09-13T10:46:26.064Z,8.87
2018-09-13T10:49:02.294Z,9.68
2018-09-13T10:53:43.305Z,9.50
2018-09-13T10:56:13.465Z,8.53
2018-09-13T10:58:44.092Z,9.18
2018-09-13T11:01:13.985Z,7.60
2018-09-13T11:03:43.511Z,7.70
2018-09-13T11:06:23.135Z,7.17
2018-09-13T11:08:52.739Z,7.72
2018-09-13T11:11:24.538Z,7.50
2018-09-13T11:14:01.677Z,8.88
2018-09-13T11:16:34.375Z,7.65
2018-09-13T11:19:24.855Z,7.53
2018-09-13T11:22:02.774Z,7.42
2018-09-13T11:24:33.150Z,7.37
2018-09-13T11:27:12.025Z,8.70
2018-09-13T11:29:56.170Z,7.00
2018-09-13T11:32:30.290Z,7.17
2018-09-13T11:35:00.758Z,7.33
2018-09-13T11:37:31.445Z,8.13
2018-09-13T11:40:01.999Z,8.65
2018-09-13T11:42:33.441Z,11.18
2018-09-13T11:45:02.989Z,10.63
2018-09-13T11:47:32.549Z,9.98
2018-09-13T11:50:02.059Z,11.15
2018-09-13T11:52:32.103Z,9.10
2018-09-13T11:55:01.778Z,11.33
2018-09-13T11:57:31.361Z,8.93
2018-09-13T12:00:10.773Z,10.50
2018-09-13T12:02:44.152Z,8.70
2018-09-13T12:05:16.092Z,9.20
2018-09-13T12:07:48.296Z,10.18
2018-09-13T12:10:27.396Z,9.08
2018-09-13T12:12:58.820Z,8.45
2018-09-13T12:15:29.092Z,8.15
2018-09-13T12:17:59.229Z,9.53
2018-09-13T12:20:29.681Z,8.78
2018-09-13T12:22:59.407Z,8.68
2018-09-13T12:25:29.812Z,11.57
2018-09-13T12:28:01.211Z,10.32
2018-09-13T12:30:31.638Z,12.30
2018-09-13T12:33:01.499Z,9.80
2018-09-13T12:35:31.147Z,12.98
2018-09-13T12:38:00.679Z,11.08
2018-09-13T12:40:30.363Z,11.43
2018-09-13T12:43:00.392Z,10.10
2018-09-13T12:45:29.971Z,12.13
2018-09-13T12:47:59.532Z,10.70
2018-09-13T12:50:30.436Z,14.80
2018-09-13T12:53:00.028Z,11.25
2018-09-13T12:55:34.624Z,10.70
2018-09-13T12:58:04.726Z,10.72
2018-09-13T13:00:43.969Z,13.10
2018-09-13T13:03:18.377Z,12.90
2018-09-13T13:06:05.844Z,12.98
2018-09-13T13:08:35.730Z,10.68
2018-09-13T13:11:09.077Z,10.23
2018-09-13T13:13:38.718Z,9.88
2018-09-13T13:16:08.260Z,12.10
2018-09-13T13:18:41.424Z,9.18
2018-09-13T13:21:11.015Z,16.82
2018-09-13T13:23:40.715Z,10.23
2018-09-13T13:26:12.348Z,11.30
2018-09-13T13:28:41.976Z,11.85
2018-09-13T13:31:11.650Z,8.85
2018-09-13T13:33:43.439Z,16.27
2018-09-13T13:36:13.582Z,12.23
2018-09-13T13:38:43.776Z,11.30
2018-09-13T13:41:13.341Z,11.85
2018-09-13T13:43:42.901Z,11.75
2018-09-13T13:46:12.784Z,12.78
2018-09-13T13:48:42.364Z,10.72
2018-09-13T13:51:11.912Z,9.30
2018-09-13T13:53:42.091Z,9.13
2018-09-13T13:56:11.612Z,10.80
2018-09-13T13:58:41.484Z,8.18
2018-09-13T14:01:11.027Z,8.65
2018-09-13T14:03:40.563Z,7.92
2018-09-13T14:06:10.090Z,11.85
2018-09-13T14:08:40.215Z,9.68
2018-09-13T14:11:09.740Z,9.65
2018-09-13T14:13:39.387Z,9.60
2018-09-13T14:16:09.010Z,11.03
2018-09-13T14:18:38.876Z,15.88
2018-09-13T14:21:08.456Z,14.87
2018-09-13T14:23:37.951Z,13.48
2018-09-13T14:26:08.314Z,13.55
2018-09-13T14:28:37.872Z,9.83
2018-09-13T14:31:07.504Z,9.10
2018-09-13T14:33:37.092Z,12.30
2018-09-13T14:36:06.736Z,15.58
2018-09-13T14:38:36.882Z,10.05
2018-09-13T14:41:07.182Z,15.23
2018-09-13T14:43:37.121Z,15.30
2018-09-13T14:46:07.281Z,15.55
2018-09-13T14:48:36.918Z,12.33
2018-09-13T14:51:07.088Z,10.13
2018-09-13T14:53:36.623Z,10.43
2018-09-13T14:56:06.533Z,9.13
2018-09-13T14:58:37.271Z,12.05
2018-09-13T15:01:07.516Z,11.83
2018-09-13T15:03:37.335Z,10.82
2018-09-13T15:06:07.918Z,10.75
2018-09-13T15:08:38.036Z,9.70
2018-09-13T15:11:08.301Z,12.53
2018-09-13T15:13:38.472Z,15.83
2018-09-13T15:16:08.459Z,15.80
2018-09-13T15:18:38.668Z,11.60
2018-09-13T15:21:09.314Z,12.73
2018-09-13T15:23:38.925Z,13.85
2018-09-13T15:26:09.191Z,11.33
2018-09-13T15:28:41.439Z,13.55
2018-09-13T15:31:11.580Z,13.65
2018-09-13T15:33:41.792Z,15.93
2018-09-13T15:36:12.522Z,15.45
2018-09-13T15:38:43.252Z,18.37
2018-09-13T15:41:13.184Z,12.30
2018-09-13T15:43:43.961Z,11.68
2018-09-13T15:46:14.236Z,12.98
2018-09-13T15:48:45.323Z,12.07
2018-09-13T15:51:16.430Z,10.73
2018-09-13T15:53:46.619Z,11.78
2018-09-13T15:56:16.299Z,10.10
2018-09-13T15:58:46.911Z,11.63
2018-09-13T16:01:16.434Z,14.20
2018-09-13T18:57:36.808Z,8.88
2018-09-13T19:00:06.699Z,10.43
2018-09-13T19:02:37.808Z,10.55
2018-09-13T19:05:08.387Z,11.93
2018-09-13T19:07:38.163Z,13.28
2018-09-13T19:10:08.147Z,9.25
2018-09-13T19:12:38.744Z,10.78
2018-09-13T19:15:11.824Z,10.38
2018-09-13T19:17:42.164Z,11.15
2018-09-13T19:20:12.744Z,14.20
2018-09-13T19:22:42.694Z,12.80
2018-09-13T19:25:12.619Z,11.03
2018-09-13T19:27:42.546Z,15.38
2018-09-13T19:30:13.123Z,13.78
2018-09-13T19:32:43.344Z,14.18
2018-09-13T19:35:15.338Z,17.50
2018-09-13T19:37:49.205Z,14.33
2018-09-13T19:40:24.137Z,14.68
2018-09-13T19:42:57.585Z,16.50
2018-09-13T19:45:28.790Z,14.38
2018-09-13T19:48:03.422Z,14.38
2018-09-13T19:50:38.268Z,14.40
2018-09-13T19:53:08.427Z,15.23
2018-09-13T19:55:43.204Z,16.97
2018-09-13T19:58:21.297Z,16.67
2018-09-13T20:00:52.760Z,17.17
2018-09-13T20:03:24.721Z,15.95
2018-09-13T20:06:01.392Z,15.93
2018-09-13T20:08:33.189Z,13.08
2018-09-13T20:11:11.716Z,13.20
2018-09-13T20:13:47.404Z,17.10
2018-09-13T20:16:27.717Z,12.45
2018-09-13T20:18:58.310Z,13.43
2018-09-13T20:21:29.032Z,11.78
2018-09-13T20:23:59.631Z,16.55
2018-09-13T20:26:30.048Z,13.00
2018-09-13T20:29:01.370Z,11.68
2018-09-13T20:31:47.530Z,10.25
2018-09-13T20:34:22.668Z,13.53
2018-09-13T20:36:57.423Z,13.35
2018-09-13T20:39:28.156Z,13.10
2018-09-13T20:41:58.232Z,12.88
2018-09-13T20:44:36.383Z,10.93
2018-09-13T20:47:09.960Z,13.60
2018-09-13T20:49:40.111Z,11.93
2018-09-13T20:52:11.169Z,11.95
2018-09-13T20:54:40.959Z,13.10
2018-09-13T20:57:12.207Z,12.73
2018-09-13T20:59:42.567Z,11.80
2018-09-13T21:02:12.520Z,12.18
2018-09-13T21:04:42.674Z,12.35
2018-09-13T21:07:12.524Z,13.93
2018-09-13T21:09:43.811Z,12.10
2018-09-13T21:12:13.956Z,13.55
2018-09-13T21:14:48.518Z,12.78
2018-09-13T21:17:19.187Z,17.37
2018-09-13T21:19:50.439Z,14.50
2018-09-13T21:22:21.924Z,14.90
2018-09-13T21:24:52.471Z,13.45
2018-09-13T21:27:31.535Z,9.98
2018-09-13T21:30:01.221Z,10.80
2018-09-13T21:32:32.387Z,12.95
2018-09-13T21:35:05.002Z,13.00
2018-09-13T21:37:35.315Z,10.85
2018-09-13T21:40:10.771Z,13.03
2018-09-13T21:42:45.922Z,14.33
2018-09-13T21:45:16.006Z,14.80
2018-09-13T21:47:46.275Z,15.05
2018-09-13T21:50:16.734Z,13.62
2018-09-13T21:52:46.728Z,14.68
2018-09-13T21:55:24.976Z,15.58
2018-09-13T21:57:59.824Z,15.58
2018-09-13T22:00:31.836Z,18.23
2018-09-13T22:03:02.395Z,13.30
2018-09-13T22:05:32.215Z,14.13
2018-09-13T22:08:02.120Z,17.73
2018-09-13T22:10:31.793Z,15.35
2018-09-13T22:13:01.679Z,17.27
2018-09-13T22:15:32.347Z,14.13
2018-09-13T22:18:03.111Z,20.02
2018-09-13T22:20:32.993Z,17.42
2018-09-13T22:23:02.899Z,13.38
2018-09-13T22:25:32.822Z,17.35
2018-09-13T22:28:03.499Z,16.87
2018-09-13T22:30:33.576Z,13.00
2018-09-13T22:33:03.636Z,15.15
2018-09-13T22:35:33.367Z,18.57
2018-09-13T22:38:03.014Z,15.08
2018-09-13T22:40:33.270Z,20.37
2018-09-13T22:43:03.804Z,15.25
2018-09-13T22:45:33.447Z,17.00
2018-09-13T22:48:03.763Z,16.17
2018-09-13T22:50:33.960Z,18.45
2018-09-13T22:53:04.642Z,18.73
2018-09-13T22:55:35.180Z,21.70
2018-09-13T22:58:05.099Z,18.30
2018-09-13T23:00:35.013Z,16.02
2018-09-13T23:03:05.684Z,16.90
2018-09-13T23:05:36.413Z,16.37
2018-09-13T23:08:07.053Z,16.45
2018-09-13T23:10:38.012Z,14.00
2018-09-13T23:13:07.623Z,20.80
2018-09-13T23:15:37.262Z,16.32
2018-09-13T23:18:06.842Z,16.62
2018-09-13T23:20:36.424Z,14.15
2018-09-13T23:23:06.095Z,16.10
2018-09-13T23:25:36.119Z,16.12
2018-09-13T23:28:06.405Z,16.12
2018-09-13T23:30:36.374Z,13.60
2018-09-13T23:33:06.633Z,16.37
2018-09-13T23:35:36.973Z,18.87
2018-09-13T23:38:06.819Z,13.88
2018-09-13T23:40:37.176Z,15.20
2018-09-13T23:43:07.904Z,17.27
2018-09-13T23:45:38.571Z,17.75
2018-09-13T23:48:08.447Z,16.50
2018-09-13T23:50:39.287Z,14.98
2018-09-13T23:53:10.015Z,17.73
2018-09-13T23:55:39.914Z,18.00
2018-09-13T23:58:09.455Z,11.95
